^^
Grace C. Lehan Memorial Weather Station Historical Data
 
Daily Summary for January 23, 2020 Units:  English    Metric   Both
Daily Weekly Monthly Yearly Custom
  Current: High: Low: Average:
Temperature: 39.8 °F 44.5 °F 19.1 °F 30.8 °F
Dew Point: 20.72 °F 25.2 °F 15.61 °F 20.1 °F
Humidity: 46% 90% 37% 67%
Wind Speed: 0mph 2mph 0mph 0mph
Wind Gust: 0mph 3mph - -
WindCalm - - West
Pressure: 30.32 in 30.40 in 30.29 in -
Precipitation: 0.06 in      
Historical Graphs
 
 
Tabular Data for January 23, 2020
Time Temperature Dew Point Pressure Wind Wind Speed Wind Gust Humidity Rainfall Rate (Hourly) solar
00:00 26.4 °F 19.87 °F 30.40 in Calm     76% 0 in 0.00 W/m2
00:05 26.5 °F 19.97 °F 30.39 in Calm     76% 0 in 0.00 W/m2
00:10 26.6 °F 20.07 °F 30.40 in Calm     76% 0 in 0.00 W/m2
00:15 26.8 °F 19.95 °F 30.39 in Calm     75% 0 in 0.00 W/m2
00:20 26.9 °F 20.05 °F 30.39 in Calm     75% 0 in 0.00 W/m2
00:25 26.9 °F 20.05 °F 30.39 in Calm     75% 0 in 0.00 W/m2
00:30 26.8 °F 19.95 °F 30.38 in Calm     75% 0 in 0.00 W/m2
00:35 26.6 °F 19.76 °F 30.38 in Calm     75% 0 in 0.00 W/m2
00:40 26.6 °F 19.76 °F 30.38 in Calm     75% 0 in 0.00 W/m2
00:45 26.5 °F 19.66 °F 30.37 in Calm     75% 0 in 0.00 W/m2
00:50 26.5 °F 19.66 °F 30.37 in Calm     75% 0 in 0.00 W/m2
00:55 26.5 °F 19.66 °F 30.37 in Calm     75% 0 in 0.00 W/m2
01:00 26.5 °F 19.66 °F 30.36 in Calm     75% 0 in 0.00 W/m2
01:05 26.6 °F 19.44 °F 30.37 in Calm     74% 0 in 0.00 W/m2
01:10 26.7 °F 19.54 °F 30.37 in Calm     74% 0 in 0.00 W/m2
01:15 26.4 °F 19.25 °F 30.37 in Calm     74% 0 in 0.00 W/m2
01:20 26.1 °F 18.96 °F 30.37 in Calm     74% 0 in 0.00 W/m2
01:25 25.8 °F 18.98 °F 30.37 in Calm     75% 0 in 0.00 W/m2
01:30 25.3 °F 18.5 °F 30.38 in Calm     75% 0 in 0.00 W/m2
01:35 24.8 °F 18.32 °F 30.38 in Calm     76% 0 in 0.00 W/m2
01:40 24.4 °F 18.24 °F 30.37 in Calm     77% 0 in 0.00 W/m2
01:45 24.3 °F 18.44 °F 30.37 in Calm     78% 0 in 0.00 W/m2
01:50 24.6 °F 19.03 °F 30.37 in Calm     79% 0 in 0.00 W/m2
01:55 25.2 °F 19.32 °F 30.38 in Calm     78% 0 in 0.00 W/m2
02:00 25.5 °F 19.31 °F 30.38 in Calm     77% 0 in 0.00 W/m2
02:05 25.7 °F 19.8 °F 30.37 in Calm     78% 0 in 0.00 W/m2
02:10 25.7 °F 19.8 °F 30.37 in Calm     78% 0 in 0.00 W/m2
02:15 25.6 °F 19.4 °F 30.38 in Calm     77% 0 in 0.00 W/m2
02:20 25.5 °F 19.61 °F 30.38 in Calm     78% 0 in 0.00 W/m2
02:25 25.5 °F 19.61 °F 30.37 in Calm     78% 0 in 0.00 W/m2
02:30 25.4 °F 19.51 °F 30.37 in Calm     78% 0 in 0.00 W/m2
02:35 25.1 °F 19.22 °F 30.37 in Calm     78% 0 in 0.00 W/m2
02:40 24.9 °F 19.02 °F 30.36 in Calm     78% 0 in 0.00 W/m2
02:45 24.9 °F 19.02 °F 30.36 in Calm     78% 0 in 0.00 W/m2
02:50 24.8 °F 18.93 °F 30.36 in Calm     78% 0 in 0.00 W/m2
02:55 24.8 °F 18.93 °F 30.36 in Calm     78% 0 in 0.00 W/m2
03:00 24.7 °F 18.83 °F 30.36 in Calm     78% 0 in 0.00 W/m2
03:05 24.7 °F 18.83 °F 30.36 in Calm     78% 0 in 0.00 W/m2
03:10 24.7 °F 18.83 °F 30.37 in Calm     78% 0 in 0.00 W/m2
03:15 24.7 °F 18.83 °F 30.37 in Calm     78% 0 in 0.00 W/m2
03:20 24.7 °F 18.83 °F 30.37 in Calm     78% 0 in 0.00 W/m2
03:25 24.6 °F 18.73 °F 30.37 in Calm     78% 0 in 0.00 W/m2
03:30 24.6 °F 18.73 °F 30.35 in Calm     78% 0 in 0.00 W/m2
03:35 24.5 °F 18.64 °F 30.35 in Calm     78% 0 in 0.00 W/m2
03:40 24.4 °F 18.54 °F 30.35 in Calm     78% 0 in 0.00 W/m2
03:45 24.2 °F 18.34 °F 30.35 in Calm     78% 0 in 0.00 W/m2
03:50 24 °F 18.45 °F 30.35 in Calm     79% 0 in 0.00 W/m2
03:55 23.8 °F 18.25 °F 30.35 in Calm     79% 0 in 0.00 W/m2
04:00 23.4 °F 17.86 °F 30.35 in Calm     79% 0 in 0.00 W/m2
04:05 23 °F 17.76 °F 30.35 in Calm     80% 0 in 0.00 W/m2
04:10 22.6 °F 17.37 °F 30.35 in Calm     80% 0 in 0.00 W/m2
04:15 22.4 °F 17.46 °F 30.35 in Calm     81% 0 in 0.00 W/m2
04:20 22.2 °F 17.27 °F 30.35 in Calm     81% 0 in 0.00 W/m2
04:25 21.8 °F 17.16 °F 30.35 in Calm     82% 0 in 0.00 W/m2
04:30 21.7 °F 17.34 °F 30.35 in Calm     83% 0 in 0.00 W/m2
04:35 21.7 °F 17.34 °F 30.34 in Calm     83% 0 in 0.00 W/m2
04:40 21.7 °F 17.34 °F 30.34 in Calm     83% 0 in 0.00 W/m2
04:45 21.7 °F 17.62 °F 30.34 in Calm     84% 0 in 0.00 W/m2
04:50 21.8 °F 17.72 °F 30.34 in Calm     84% 0 in 0.00 W/m2
04:55 21.7 °F 17.62 °F 30.35 in Calm     84% 0 in 0.00 W/m2
05:00 21.6 °F 17.52 °F 30.35 in Calm     84% 0 in 0.00 W/m2
05:05 21.6 °F 17.52 °F 30.35 in Calm     84% 0 in 0.00 W/m2
05:10 21.4 °F 17.05 °F 30.36 in Calm     83% 0 in 0.00 W/m2
05:15 21.3 °F 17.23 °F 30.36 in Calm     84% 0 in 0.00 W/m2
05:20 21.2 °F 17.13 °F 30.35 in Calm     84% 0 in 0.00 W/m2
05:25 21.1 °F 17.03 °F 30.35 in Calm     84% 0 in 0.00 W/m2
05:30 20.9 °F 16.84 °F 30.36 in Calm     84% 0 in 0.00 W/m2
05:35 20.7 °F 16.64 °F 30.36 in Calm     84% 0 in 0.00 W/m2
05:40 20.5 °F 16.44 °F 30.37 in Calm     84% 0 in 0.00 W/m2
05:45 20.3 °F 16.25 °F 30.38 in Calm     84% 0 in 0.00 W/m2
05:50 20.3 °F 16.52 °F 30.37 in Calm     85% 0 in 0.00 W/m2
05:55 20.4 °F 16.62 °F 30.37 in Calm     85% 0 in 0.00 W/m2
06:00 20.4 °F 16.62 °F 30.37 in Calm     85% 0 in 0.00 W/m2
06:05 20.3 °F 16.52 °F 30.37 in Calm     85% 0 in 0.00 W/m2
06:10 20.1 °F 16.32 °F 30.37 in Calm     85% 0 in 0.00 W/m2
06:15 19.9 °F 16.13 °F 30.37 in Calm     85% 0 in 0.00 W/m2
06:20 19.8 °F 16.03 °F 30.37 in Calm     85% 0 in 0.00 W/m2
06:25 19.7 °F 15.93 °F 30.38 in Calm     85% 0 in 0.00 W/m2
06:30 19.7 °F 15.93 °F 30.38 in Calm     85% 0 in 0.00 W/m2
06:35 19.5 °F 16 °F 30.38 in Calm     86% 0 in 0.00 W/m2
06:40 19.5 °F 16 °F 30.38 in Calm     86% 0 in 0.00 W/m2
06:45 19.3 °F 15.81 °F 30.37 in Calm     86% 0 in 0.00 W/m2
06:50 19.3 °F 15.81 °F 30.38 in Calm     86% 0 in 0.00 W/m2
06:55 19.3 °F 15.81 °F 30.37 in Calm     86% 0 in 0.00 W/m2
07:00 19.3 °F 15.81 °F 30.38 in Calm     86% 0 in 0.00 W/m2
07:05 19.2 °F 15.71 °F 30.38 in Calm     86% 0 in 0.00 W/m2
07:10 19.1 °F 15.61 °F 30.38 in Calm     86% 0 in 0.00 W/m2
07:15 19.1 °F 15.61 °F 30.38 in Calm     86% 0 in 0.00 W/m2
07:20 19.1 °F 15.61 °F 30.38 in Calm     86% 0 in 5.00 W/m2
07:25 19.1 °F 15.61 °F 30.39 in Calm     86% 0 in 7.00 W/m2
07:30 19.1 °F 15.88 °F 30.38 in Calm     87% 0 in 9.00 W/m2
07:35 19.1 °F 15.88 °F 30.39 in Calm     87% 0 in 11.00 W/m2
07:40 19.1 °F 15.88 °F 30.39 in Calm     87% 0 in 11.00 W/m2
07:45 19.1 °F 15.88 °F 30.39 in Calm     87% 0 in 11.00 W/m2
07:50 19.1 °F 15.88 °F 30.40 in Calm     87% 0 in 12.00 W/m2
07:55 19.2 °F 15.97 °F 30.40 in Calm     87% 0 in 16.00 W/m2
08:00 19.4 °F 16.43 °F 30.40 in Calm     88% 0 in 18.00 W/m2
08:05 19.6 °F 16.63 °F 30.40 in Calm     88% 0 in 19.00 W/m2
08:10 19.8 °F 16.83 °F 30.40 in Calm     88% 0 in 19.00 W/m2
08:15 20 °F 17.29 °F 30.40 in Calm     89% 0 in 21.00 W/m2
08:20 20.2 °F 17.22 °F 30.40 in Calm     88% 0 in 25.00 W/m2
08:25 20.5 °F 17.78 °F 30.39 in Calm     89% 0 in 28.00 W/m2
08:30 20.9 °F 18.17 °F 30.39 in Calm     89% 0 in 114.00 W/m2
08:35 21.5 °F 19.03 °F 30.39 in Calm     90% 0 in 25.00 W/m2
08:40 22.1 °F 19.62 °F 30.39 in Calm     90% 0 in 26.00 W/m2
08:45 22.7 °F 19.95 °F 30.40 in Calm     89% 0 in 26.00 W/m2
08:50 23.2 °F 20.45 °F 30.39 in Calm     89% 0 in 56.00 W/m2
08:55 23.6 °F 20.57 °F 30.39 in Calm     88% 0 in 33.00 W/m2
09:00 24 °F 20.97 °F 30.39 in Calm     88% 0 in 39.00 W/m2
09:05 24.4 °F 21.09 °F 30.39 in Calm     87% 0 in 46.00 W/m2
09:10 24.8 °F 21.22 °F 30.39 in Calm     86% 0 in 76.00 W/m2
09:15 25.2 °F 21.61 °F 30.39 in Calm     86% 0 in 77.00 W/m2
09:20 25.6 °F 21.45 °F 30.40 in Calm     84% 0 in 47.00 W/m2
09:25 25.9 °F 21.46 °F 30.40 in Calm     83% 0 in 86.00 W/m2
09:30 26.2 °F 21.47 °F 30.40 in Calm     82% 0 in 86.00 W/m2
09:35 26.7 °F 21.66 °F 30.40 in Calm     81% 0 in 77.00 W/m2
09:40 27 °F 21.66 °F 30.40 in Calm     80% 0 in 105.00 W/m2
09:45 27.4 °F 22.05 °F 30.40 in Calm     80% 0 in 123.00 W/m2
09:50 28 °F 22.64 °F 30.40 in Calm     80% 0 in 123.00 W/m2
09:55 28.7 °F 22.72 °F 30.40 in Calm     78% 0 in 113.00 W/m2
10:00 29.2 °F 22.9 °F 30.40 in Calm     77% 0 in 93.00 W/m2
10:05 29.6 °F 22.66 °F 30.40 in Calm     75% 0 in 95.00 W/m2
10:10 29.9 °F 22.64 °F 30.40 in Calm     74% 0 in 90.00 W/m2
10:15 30.2 °F 22.6 °F 30.40 in Calm     73% 0 in 93.00 W/m2
10:20 30.5 °F 22.89 °F 30.40 in Calm     73% 0 in 93.00 W/m2
10:25 30.8 °F 23.18 °F 30.40 in Calm   1 mph 73% 0 in 109.00 W/m2
10:30 31.2 °F 23.24 °F 30.39 in Calm   1 mph 72% 0 in 132.00 W/m2
10:35 31.5 °F 23.2 °F 30.39 in Calm     71% 0 in 116.00 W/m2
10:40 32 °F 23.68 °F 30.39 in Calm     71% 0 in 109.00 W/m2
10:45 32.5 °F 23.82 °F 30.39 in Calm     70% 0 in 100.00 W/m2
10:50 33.1 °F 24.4 °F 30.39 in Calm     70% 0 in 93.00 W/m2
10:55 33.6 °F 24.18 °F 30.39 in Calm     68% 0 in 120.00 W/m2
11:00 34.1 °F 24.31 °F 30.38 in Calm     67% 0 in 91.00 W/m2
11:05 34.7 °F 24.15 °F 30.38 in Calm     65% 0 in 91.00 W/m2
11:10 35.2 °F 24.63 °F 30.38 in Calm     65% 0 in 153.00 W/m2
11:15 35.7 °F 25.11 °F 30.38 in Calm     65% 0 in 69.00 W/m2
11:20 36.2 °F 24.83 °F 30.38 in Calm     63% 0 in 74.00 W/m2
11:25 36.5 °F 24.73 °F 30.38 in Calm     62% 0 in 163.00 W/m2
11:30 37 °F 24.42 °F 30.37 in Calm     60% 0 in 62.00 W/m2
11:35 37.3 °F 24.7 °F 30.37 in Calm     60% 0 in 90.00 W/m2
11:40 37.7 °F 24.68 °F 30.36 in Calm     59% 0 in 155.00 W/m2
11:45 38.1 °F 25.06 °F 30.36 in West 2 mph 2 mph 59% 0 in 88.00 W/m2
11:50 38.6 °F 24.7 °F 30.36 in Calm   2 mph 57% 0 in 67.00 W/m2
11:55 39.1 °F 23.87 °F 30.35 in Calm   2 mph 54% 0 in 86.00 W/m2
12:00 39.5 °F 24.25 °F 30.35 in Calm     54% 0 in 104.00 W/m2
12:05 39.8 °F 24.53 °F 30.35 in Calm     54% 0 in 120.00 W/m2
12:10 40.1 °F 23.9 °F 30.35 in Calm   2 mph 52% 0 in 230.00 W/m2
12:15 40.3 °F 24.09 °F 30.35 in Calm   2 mph 52% 0 in 151.00 W/m2
12:20 40.4 °F 23.72 °F 30.35 in Calm   2 mph 51% 0 in 144.00 W/m2
12:25 40.6 °F 23.9 °F 30.35 in West 1 mph 2 mph 51% 0 in 176.00 W/m2
12:30 40.8 °F 24.09 °F 30.35 in Calm   2 mph 51% 0 in 169.00 W/m2
12:35 41 °F 25.2 °F 30.34 in Calm   3 mph 53% 0 in 234.00 W/m2
12:40 41.3 °F 24.08 °F 30.34 in Calm   3 mph 50% 0 in 167.00 W/m2
12:45 41.5 °F 23.78 °F 30.34 in Calm   3 mph 49% 0 in 197.00 W/m2
12:50 41.7 °F 23.96 °F 30.33 in Calm   3 mph 49% 0 in 211.00 W/m2
12:55 42 °F 23.25 °F 30.33 in Calm   3 mph 47% 0 in 244.00 W/m2
13:00 42.2 °F 23.93 °F 30.33 in Calm   3 mph 48% 0 in 160.00 W/m2
13:05 42.4 °F 24.12 °F 30.33 in Calm   2 mph 48% 0 in 153.00 W/m2
13:10 42.6 °F 23.8 °F 30.33 in Calm   2 mph 47% 0.01 in 142.00 W/m2
13:15 42.7 °F 24.39 °F 30.33 in Calm   2 mph 48% 0.01 in 153.00 W/m2
13:20 42.8 °F 23.98 °F 30.32 in Calm   2 mph 47% 0.01 in 171.00 W/m2
13:25 42.9 °F 23.56 °F 30.32 in Calm   2 mph 46% 0.01 in 162.00 W/m2
13:30 43.1 °F 23.22 °F 30.31 in Calm   2 mph 45% 0.01 in 158.00 W/m2
13:35 43.2 °F 23.31 °F 30.31 in Calm     45% 0.01 in 153.00 W/m2
13:40 43.3 °F 21.77 °F 30.31 in Calm     42% 0.01 in 139.00 W/m2
13:45 43.4 °F 21.86 °F 30.31 in Calm     42% 0.02 in 155.00 W/m2
13:50 43.6 °F 21.47 °F 30.31 in Calm   2 mph 41% 0.02 in 142.00 W/m2
13:55 43.7 °F 20.98 °F 30.31 in Calm   2 mph 40% 0.02 in 135.00 W/m2
14:00 43.8 °F 22.22 °F 30.30 in West 1 mph 2 mph 42% 0.02 in 141.00 W/m2
14:05 43.8 °F 21.07 °F 30.31 in Calm   1 mph 40% 0.02 in 135.00 W/m2
14:10 44 °F 21.25 °F 30.31 in Calm   1 mph 40% 0.02 in 139.00 W/m2
14:15 44.1 °F 21.34 °F 30.31 in Calm   1 mph 40% 0.03 in 134.00 W/m2
14:20 44.2 °F 21.43 °F 30.31 in Calm   1 mph 40% 0.03 in 127.00 W/m2
14:25 44.4 °F 20.4 °F 30.31 in Calm   3 mph 38% 0.03 in 120.00 W/m2
14:30 44.5 °F 20.49 °F 30.31 in Calm   3 mph 38% 0.03 in 111.00 W/m2
14:35 44.5 °F 19.86 °F 30.30 in Calm     37% 0.02 in 104.00 W/m2
14:40 44.5 °F 21.1 °F 30.31 in Calm   1 mph 39% 0.02 in 97.00 W/m2
14:45 44.5 °F 21.1 °F 30.31 in Calm   1 mph 39% 0.02 in 98.00 W/m2
14:50 44.4 °F 21.61 °F 30.31 in Calm   1 mph 40% 0.02 in 97.00 W/m2
14:55 44.4 °F 21.01 °F 30.31 in Calm   1 mph 39% 0.02 in 95.00 W/m2
15:00 44.4 °F 22.19 °F 30.31 in Calm   1 mph 41% 0.02 in 93.00 W/m2
15:05 44.4 °F 22.19 °F 30.31 in Calm     41% 0.01 in 90.00 W/m2
15:10 44.4 °F 22.19 °F 30.31 in Calm     41% 0.01 in 83.00 W/m2
15:15 44.4 °F 22.19 °F 30.31 in Calm     41% 0.01 in 76.00 W/m2
15:20 44.3 °F 22.67 °F 30.31 in Calm     42% 0.02 in 72.00 W/m2
15:25 44.3 °F 22.1 °F 30.31 in Calm     41% 0.02 in 72.00 W/m2
15:30 44.2 °F 22.01 °F 30.31 in Calm     41% 0.02 in 69.00 W/m2
15:35 44.2 °F 22.01 °F 30.31 in Calm     41% 0.01 in 65.00 W/m2
15:40 44.1 °F 21.92 °F 30.31 in Calm     41% 0.02 in 60.00 W/m2
15:45 44 °F 21.25 °F 30.30 in Calm     40% 0.02 in 53.00 W/m2
15:50 44 °F 21.25 °F 30.30 in Calm     40% 0.02 in 46.00 W/m2
15:55 43.9 °F 21.16 °F 30.30 in Calm     40% 0.02 in 40.00 W/m2
16:00 43.8 °F 20.47 °F 30.29 in Calm   2 mph 39% 0.02 in 37.00 W/m2
16:05 43.7 °F 20.38 °F 30.29 in Calm     39% 0.02 in 32.00 W/m2
16:10 43.6 °F 20.89 °F 30.29 in Calm     40% 0.03 in 26.00 W/m2
16:15 43.5 °F 20.2 °F 30.30 in Calm     39% 0.03 in 21.00 W/m2
16:20 43.3 °F 20.02 °F 30.30 in Calm     39% 0.03 in 16.00 W/m2
16:25 43.2 °F 19.93 °F 30.30 in Calm     39% 0.03 in 14.00 W/m2
16:30 42.9 °F 19.06 °F 30.30 in Calm     38% 0.03 in 11.00 W/m2
16:35 42.8 °F 18.97 °F 30.30 in Calm     38% 0.02 in 9.00 W/m2
16:40 42.7 °F 19.48 °F 30.30 in Calm     39% 0.02 in 5.00 W/m2
16:45 42.6 °F 19.39 °F 30.30 in Calm     39% 0.02 in 0.00 W/m2
16:50 42.5 °F 19.9 °F 30.30 in Calm     40% 0.02 in 0.00 W/m2
16:55 42.3 °F 19.72 °F 30.30 in Calm     40% 0.02 in 0.00 W/m2
17:00 42 °F 20.02 °F 30.30 in Calm     41% 0.02 in 0.00 W/m2
17:05 41.8 °F 19.84 °F 30.30 in Calm     41% 0.01 in 0.00 W/m2
17:10 41.5 °F 20.14 °F 30.30 in Calm     42% 0.01 in 0.00 W/m2
17:15 41.3 °F 19.95 °F 30.30 in Calm     42% 0.01 in 0.00 W/m2
17:20 41.2 °F 19.86 °F 30.30 in Calm     42% 0.01 in 0.00 W/m2
17:25 40.9 °F 19.59 °F 30.30 in Calm     42% 0.01 in 0.00 W/m2
17:30 40.7 °F 19.96 °F 30.30 in Calm     43% 0.01 in 0.00 W/m2
17:35 40.6 °F 20.41 °F 30.31 in Calm     44% 0 in 0.00 W/m2
17:40 40.3 °F 19.6 °F 30.31 in Calm     43% 0 in 0.00 W/m2
17:45 40.1 °F 20.48 °F 30.31 in Calm     45% 0 in 0.00 W/m2
17:50 39.8 °F 20.72 °F 30.32 in Calm     46% 0 in 0.00 W/m2
Grace C. Lehan Memorial Weather Station
Compliments of Weather Underground - 4 mb